Saturday, February 28, 2015
05:20 UTC
  |  Log In   |  Register Free
Airport Search:

Olympia Regional Airport
(KOLM)

Airport information sponsored by:
Glacier Jet Center at Olympia Regional (KOLM), Olympia, WA
FAA data valid effective January 08, 2015 - March 05, 2015 (unless otherwise noted).

 
 
 
 
 
 
 
 
 
 
 
 
 
 

Current Aviation Weather for Olympia Regional Airport (KOLM)

The most recent METAR observation for KOLM was updated at: 0513
METAR Summary (Translated METAR)
KOLM
280454Z AUTO 03006KT 10SM BKN070 OVC080 08/05 A2985 RMK AO2 SLP110 T00830050
KGRF
280458Z AUTO 00000KT 10SM SCT085 08/08 A2984 RMK AO2 SLP110 T00790077 $
(14.7 nm NE from KOLM)
KCLS
280455Z AUTO 01007KT 10SM SCT055 BKN065 OVC080 09/07 A2984 RMK AO2
(17.9 nm SW from KOLM)
TAF Summary (Translated TAF)
KOLM
272140Z 2722/2818 04006KT P6SM BKN016 BKN035 OVC050 FM280200 02006KT P6SM BKN050 BKN080 FM280600 02005KT P6SM BKN100
KGRF
(14.7 nm NE from KOLM)
2723/0103 03006KT 9000 -RA SCT008 BKN045 620509 QNH2972INS TEMPO 2723/2801 BKN008 OVC045 BECMG 2803/2804 04006KT 9999 NSW SCT030 OVC040 620409 QNH2980INS BECMG 2809/2810 04006KT 9999 FEW075 QNH2997INS BECMG 2816/2817 04009KT 9999 FEW200 QNH3016INS TX11/2800Z TN04/2813Z AMD 272303
  Airport Weather Conditions for KOLM

 Current Weather at OLM
47° F
Overcast
Northeast winds at 6.9 mph
OLM NOAA Radar

Pressure: 29.85 in
Humidity: 80%
Wind: Northeast at 6.9 MPH (6 KT)
Dew Point: 41.0°F
Visibility: 10.00 mi


Airport Weather Forecast for KOLM

Translated METAR and TAF for KOLM
Translated METAR for KOLM (0520 UTC 28 February 2015)
found at http://aviationweather.gov/adds/metars/
 
METAR text: KOLM 280454Z AUTO 03006KT 10SM BKN070 OVC080 08/05 A2985 RMK AO2 SLP110 T00830050
Conditions at: KOLM (OLYMPIA , WA, US) observed 0454 UTC 28 February 2015
Temperature: 8.3°C (47°F)
Dewpoint: 5.0°C (41°F) [RH = 80%]
Pressure (altimeter): 29.85 inches Hg (1010.9 mb)
[Sea-level pressure: 1011.0 mb]
Winds: from the NNE (30 degrees) at 7 MPH (6 knots; 3.1 m/s)
Visibility: 10 or more miles (16+ km)
Ceiling: 7000 feet AGL
Clouds: broken clouds at 7000 feet AGL
overcast cloud deck at 8000 feet AGL
Weather: automated observation with no human augmentation;
there may or may not be significant weather present at this time
Translated TAF for KOLM
Forecast for: KOLM (OLYMPIA , WA, US)
TAF Text: KOLM 272327Z 2800/2824 03010KT P6SM VCSH BKN014 OVC035
Forecast period: 0000 to 0300 UTC 28 February 2015
Forecast type: FROM: standard forecast or significant change
Winds: from the NNE (30 degrees) at 12 MPH (10 knots; 5.2 m/s)
Visibility: 6 or more miles (10+ km)
Ceiling: 1400 feet AGL
Clouds: broken clouds at 1400 feet AGL
overcast cloud deck at 3500 feet AGL
Weather: VCSH  (showers in vicinity)
TAF Text: FM280300 02006KT P6SM SCT014 OVC050
Forecast period: 0300 to 0900 UTC 28 February 2015
Forecast type: FROM: standard forecast or significant change
Winds: from the NNE (20 degrees) at 7 MPH (6 knots; 3.1 m/s)
Visibility: 6 or more miles (10+ km)
Ceiling: 5000 feet AGL
Clouds: scattered clouds at 1400 feet AGL
overcast cloud deck at 5000 feet AGL
Weather: no significant weather forecast for this period
TAF Text: FM280900 02005KT P6SM BKN100
Forecast period: 0900 to 1100 UTC 28 February 2015
Forecast type: FROM: standard forecast or significant change
Winds: from the NNE (20 degrees) at 6 MPH (5 knots; 2.6 m/s)
Visibility: 6 or more miles (10+ km)
Ceiling: 10000 feet AGL
Clouds: broken clouds at 10000 feet AGL
Weather: no significant weather forecast for this period
TAF Text: FM281100 00000KT 1/2SM FG OVC002
Forecast period: 1100 to 1700 UTC 28 February 2015
Forecast type: FROM: standard forecast or significant change
Winds: calm
Visibility: 0.50 miles (0.80 km)
Ceiling: 200 feet AGL
Clouds: overcast cloud deck at 200 feet AGL
Weather: FG  (fog)
TAF Text: FM281700 02005KT P6SM SKC
Forecast period: 1700 UTC 28 February 2015 to 0000 UTC 01 March 2015
Forecast type: FROM: standard forecast or significant change
Winds: from the NNE (20 degrees) at 6 MPH (5 knots; 2.6 m/s)
Visibility: 6 or more miles (10+ km)
Clouds: clear skies
Weather: no significant weather forecast for this period

Find All Airport Services Find A Hotel Find A Rental Car Find A Golf Course Find A Restaurant $100 Hamburger



FBO's on the Field
FBO Company Facility Photos Services Transportation Aviation Fuel Prices: Prices include tax
Catering Weather Repair Courtesy Rental Type 100LL JetA JetA+ MOGAS 8087
 
Glacier Jet Center

Glacier Jet Center logo
Currently rated 3.6 by 1 person
FS:
Last Updated: Feb-25
Login to update fuel prices
SS:
Contact Glacier Jet CenterMore FBO Information
 
Jorgensen Air Service

Jorgensen Air Service logo
Currently rated 4.7 by 3 people
FS:
Last Updated: Feb-21
Login to update fuel prices
SS:
Contact Jorgensen Air ServiceMore FBO Information
 
Add another FBO Facility Photos Catering Weather Repair Courtesy Rental Type 100LL JetA JetA+ MOGAS 8087
Services Transportation Aviation Fuel Prices: Prices include tax


model-print
model-print
model-print
model-print